Time;durP1;ratioP1;P1;durP2;ratioP2;P2;SDS_P1;SDS_P2;PMS_P1;PMS_P2;Temp;Humidity;BMP_temperature;BMP_pressure;BME280_temperature;BME280_humidity;BME280_pressure;Samples;Min_cycle;Max_cycle;Signal;HPM_P1;HPM_P2
2021/08/01 00:00:02;;;;;;;6.97;2.88;;;;;;;;;;5067021;28;20423;-45
2021/08/01 00:02:27;;;;;;;6.90;3.50;;;;;;;;;;5062265;28;20052;-46
2021/08/01 00:04:53;;;;;;;8.45;3.42;;;;;;;;;;5046950;28;20476;-44
2021/08/01 00:07:18;;;;;;;6.97;3.25;;;;;;;;;;5046201;28;20034;-47
2021/08/01 00:09:43;;;;;;;7.03;3.10;;;;;;;;;;5045359;28;20768;-45
2021/08/01 00:12:09;;;;;;;6.30;3.33;;;;;;;;;;5045554;28;20502;-45
2021/08/01 00:14:34;;;;;;;5.55;3.08;;;;;;;;;;5046994;28;20032;-48
2021/08/01 00:17:00;;;;;;;6.72;3.33;;;;;;;;;;5046524;28;20102;-45
2021/08/01 00:19:26;;;;;;;7.50;3.03;;;;;;;;;;5046266;28;20423;-48
2021/08/01 00:21:51;;;;;;;8.98;3.20;;;;;;;;;;5046998;28;20028;-45
2021/08/01 00:24:16;;;;;;;5.25;3.08;;;;;;;;;;5046082;28;20115;-49
2021/08/01 00:26:42;;;;;;;5.72;2.83;;;;;;;;;;5046226;28;20017;-50
2021/08/01 00:29:07;;;;;;;6.40;3.08;;;;;;;;;;5046453;28;20048;-48
2021/08/01 00:31:32;;;;;;;5.25;2.80;;;;;;;;;;5046698;28;20649;-45
2021/08/01 00:33:59;;;;;;;5.63;2.97;;;;;;;;;;5044883;28;20117;-45
2021/08/01 00:36:25;;;;;;;5.57;3.10;;;;;;;;;;5044937;28;20096;-48
2021/08/01 00:38:50;;;;;;;4.93;2.90;;;;;;;;;;5047959;28;20155;-46
2021/08/01 00:41:15;;;;;;;7.55;3.10;;;;;;;;;;5046041;28;20125;-44
2021/08/01 00:43:40;;;;;;;5.90;3.13;;;;;;;;;;5045693;28;20017;-44
2021/08/01 00:46:06;;;;;;;4.38;2.85;;;;;;;;;;5038634;28;20487;-44
2021/08/01 00:48:34;;;;;;;6.78;3.15;;;;;;;;;;5042246;28;20046;-45
2021/08/01 00:50:59;;;;;;;9.05;3.63;;;;;;;;;;5055537;28;20040;-44
2021/08/01 00:53:26;;;;;;;4.55;2.90;;;;;;;;;;5061634;28;20744;-46
2021/08/01 00:55:52;;;;;;;6.65;3.50;;;;;;;;;;5042347;28;20032;-47
2021/08/01 00:58:17;;;;;;;5.85;2.92;;;;;;;;;;5045682;28;20021;-47
2021/08/01 01:01:07;;;;;;;7.30;2.90;;;;;;;;;;5030347;28;20025;-48
2021/08/01 01:03:42;;;;;;;6.90;2.90;;;;;;;;;;5047097;28;20550;-47
2021/08/01 01:06:36;;;;;;;5.28;2.60;;;;;;;;;;5045371;28;20040;-47
2021/08/01 01:09:32;;;;;;;5.15;2.63;;;;;;;;;;5045940;28;20037;-45
2021/08/01 01:12:02;;;;;;;5.93;3.00;;;;;;;;;;5037249;28;20073;-43
2021/08/01 01:14:29;;;;;;;8.15;3.03;;;;;;;;;;5038601;28;20025;-46
2021/08/01 01:16:59;;;;;;;4.80;2.50;;;;;;;;;;5044985;28;20488;-45
2021/08/01 01:19:50;;;;;;;7.30;2.80;;;;;;;;;;5045652;28;20021;-45
2021/08/01 01:22:31;;;;;;;5.43;3.00;;;;;;;;;;5044218;28;20024;-45
2021/08/01 01:24:57;;;;;;;6.37;3.17;;;;;;;;;;5043815;28;20037;-44
2021/08/01 01:27:37;;;;;;;5.50;2.92;;;;;;;;;;5044588;28;20032;-45
2021/08/01 01:30:04;;;;;;;6.05;2.78;;;;;;;;;;5044900;28;20484;-45
2021/08/01 01:33:06;;;;;;;5.32;3.00;;;;;;;;;;5044859;28;20025;-44
2021/08/01 01:35:35;;;;;;;;;;;;;;;;;;5045687;28;20100;-44
2021/08/01 01:38:01;;;;;;;5.30;2.75;;;;;;;;;;5044852;28;20401;-45
2021/08/01 01:40:26;;;;;;;7.07;3.10;;;;;;;;;;5044705;28;20115;-44
2021/08/01 01:42:54;;;;;;;5.38;3.00;;;;;;;;;;5041989;28;20052;-43
2021/08/01 01:45:20;;;;;;;5.97;2.97;;;;;;;;;;5045292;28;20032;-44
2021/08/01 01:47:46;;;;;;;4.70;2.80;;;;;;;;;;5044620;28;20025;-46
2021/08/01 01:50:12;;;;;;;5.05;2.92;;;;;;;;;;5042888;28;20029;-47
2021/08/01 01:52:40;;;;;;;6.68;2.72;;;;;;;;;;5047800;28;20036;-46
2021/08/01 01:55:06;;;;;;;5.47;2.80;;;;;;;;;;5024424;28;20080;-47
2021/08/01 01:57:32;;;;;;;8.20;3.30;;;;;;;;;;5028200;28;20104;-44
2021/08/01 01:59:59;;;;;;;9.63;3.00;;;;;;;;;;5044396;28;20541;-45
2021/08/01 02:02:24;;;;;;;6.25;2.97;;;;;;;;;;5044820;28;20025;-43
2021/08/01 02:04:49;;;;;;;5.75;2.70;;;;;;;;;;5044906;28;20025;-45
2021/08/01 02:07:15;;;;;;;4.70;2.90;;;;;;;;;;5044074;28;20029;-44
2021/08/01 02:09:54;;;;;;;8.10;3.05;;;;;;;;;;5044604;28;20086;-45
2021/08/01 02:12:51;;;;;;;5.50;3.03;;;;;;;;;;5042744;28;20043;-48
2021/08/01 02:15:20;;;;;;;7.55;3.03;;;;;;;;;;5037926;28;20060;-49
2021/08/01 02:18:06;;;;;;;7.78;2.45;;;;;;;;;;5043572;28;20451;-46
2021/08/01 02:20:39;;;;;;;4.80;2.80;;;;;;;;;;5044917;28;20121;-48
2021/08/01 02:23:06;;;;;;;5.95;3.03;;;;;;;;;;5044843;28;20029;-48
2021/08/01 02:25:32;;;;;;;5.13;3.05;;;;;;;;;;5044216;28;20043;-48
2021/08/01 02:27:59;;;;;;;4.15;2.35;;;;;;;;;;5044308;28;20110;-46
2021/08/01 02:30:27;;;;;;;5.22;2.45;;;;;;;;;;5043456;28;20033;-47
2021/08/01 02:32:53;;;;;;;4.50;2.60;;;;;;;;;;5043974;28;20108;-45
2021/08/01 02:35:19;;;;;;;8.30;3.17;;;;;;;;;;5044361;28;20147;-51
2021/08/01 02:37:45;;;;;;;7.18;3.28;;;;;;;;;;5043995;28;20290;-45
2021/08/01 02:40:13;;;;;;;4.60;2.85;;;;;;;;;;5041914;28;20511;-46
2021/08/01 02:42:41;;;;;;;5.28;2.78;;;;;;;;;;5043080;28;20025;-47
2021/08/01 02:45:07;;;;;;;5.18;2.60;;;;;;;;;;5044593;28;20131;-43
2021/08/01 02:47:33;;;;;;;5.82;2.78;;;;;;;;;;5044893;28;20167;-46
2021/08/01 02:50:01;;;;;;;5.95;2.92;;;;;;;;;;5058650;28;20013;-45
2021/08/01 02:52:37;;;;;;;7.03;2.90;;;;;;;;;;5044430;28;20400;-44
2021/08/01 02:55:04;;;;;;;5.18;2.60;;;;;;;;;;5044343;28;20017;-46
2021/08/01 02:57:31;;;;;;;4.50;2.97;;;;;;;;;;5043515;28;20119;-44
2021/08/01 03:00:00;;;;;;;7.75;3.00;;;;;;;;;;5044097;28;20021;-46
2021/08/01 03:02:25;;;;;;;6.50;2.70;;;;;;;;;;5047839;28;20112;-44
2021/08/01 03:04:51;;;;;;;5.28;2.88;;;;;;;;;;5046536;28;20100;-46
2021/08/01 03:07:18;;;;;;;6.13;2.83;;;;;;;;;;5046914;28;20040;-45
2021/08/01 03:09:43;;;;;;;7.30;3.13;;;;;;;;;;5047974;28;20021;-47
2021/08/01 03:12:14;;;;;;;7.25;2.72;;;;;;;;;;5047162;28;20025;-46
2021/08/01 03:14:40;;;;;;;4.82;2.97;;;;;;;;;;5047973;28;20033;-46
2021/08/01 03:17:06;;;;;;;7.40;2.90;;;;;;;;;;5029702;28;20037;-46
2021/08/01 03:19:37;;;;;;;7.43;2.58;;;;;;;;;;5047611;28;20110;-45
2021/08/01 03:22:03;;;;;;;5.45;3.08;;;;;;;;;;5047273;28;20033;-44
2021/08/01 03:24:28;;;;;;;6.75;3.20;;;;;;;;;;5047571;28;20043;-44
2021/08/01 03:26:54;;;;;;;5.10;2.97;;;;;;;;;;5047379;28;20590;-43
2021/08/01 03:29:19;;;;;;;4.90;2.42;;;;;;;;;;5046188;28;20484;-44
2021/08/01 03:31:45;;;;;;;6.97;2.50;;;;;;;;;;5046944;28;20071;-44
2021/08/01 03:34:10;;;;;;;6.22;2.97;;;;;;;;;;5047928;28;20048;-45
2021/08/01 03:36:36;;;;;;;4.38;2.53;;;;;;;;;;5046537;28;20079;-44
2021/08/01 03:39:03;;;;;;;5.53;2.72;;;;;;;;;;5047202;28;20025;-45
2021/08/01 03:41:29;;;;;;;6.00;3.20;;;;;;;;;;5047668;28;20040;-46
2021/08/01 03:43:54;;;;;;;4.72;2.75;;;;;;;;;;5042661;28;20480;-45
2021/08/01 03:46:19;;;;;;;6.50;2.80;;;;;;;;;;5047305;28;20036;-43
2021/08/01 03:48:45;;;;;;;8.05;3.13;;;;;;;;;;5046734;28;20025;-44
2021/08/01 03:51:10;;;;;;;4.35;2.78;;;;;;;;;;5046770;28;20013;-46
2021/08/01 03:53:35;;;;;;;6.20;2.42;;;;;;;;;;5065968;28;20024;-47
2021/08/01 03:56:03;;;;;;;6.03;2.88;;;;;;;;;;5046633;28;20013;-45
2021/08/01 03:58:29;;;;;;;5.85;2.60;;;;;;;;;;5046718;28;20031;-44
2021/08/01 04:00:54;;;;;;;5.85;2.38;;;;;;;;;;5046870;28;20029;-44
2021/08/01 04:03:19;;;;;;;7.50;3.38;;;;;;;;;;5047314;28;20036;-44
2021/08/01 04:05:44;;;;;;;6.05;2.72;;;;;;;;;;5045425;28;20709;-46
2021/08/01 04:08:10;;;;;;;4.35;2.58;;;;;;;;;;5043473;28;20032;-43
2021/08/01 04:10:35;;;;;;;7.00;2.63;;;;;;;;;;5039010;28;20021;-44
2021/08/01 04:13:01;;;;;;;5.65;2.50;;;;;;;;;;5045989;28;20514;-45
2021/08/01 04:15:26;;;;;;;7.05;2.60;;;;;;;;;;5046486;28;20552;-45
2021/08/01 04:17:51;;;;;;;6.85;2.47;;;;;;;;;;5046307;28;20441;-46
2021/08/01 04:20:17;;;;;;;6.60;2.50;;;;;;;;;;5044800;28;20029;-46
2021/08/01 04:22:42;;;;;;;5.53;2.40;;;;;;;;;;5046228;28;20504;-44
2021/08/01 04:25:09;;;;;;;5.25;2.47;;;;;;;;;;5043492;28;20037;-46
2021/08/01 04:27:34;;;;;;;5.03;2.15;;;;;;;;;;5028967;28;20042;-45
2021/08/01 04:30:00;;;;;;;4.90;2.30;;;;;;;;;;5031426;28;20102;-45
2021/08/01 04:32:25;;;;;;;6.70;2.75;;;;;;;;;;5045947;28;20414;-46
2021/08/01 04:34:51;;;;;;;3.92;1.92;;;;;;;;;;5042893;28;20370;-45
2021/08/01 04:37:16;;;;;;;5.80;2.40;;;;;;;;;;5041608;28;20024;-45
2021/08/01 04:39:41;;;;;;;6.25;2.45;;;;;;;;;;5041906;28;20469;-46
2021/08/01 04:42:07;;;;;;;6.15;2.30;;;;;;;;;;5040674;28;20031;-43
2021/08/01 04:44:32;;;;;;;8.18;2.58;;;;;;;;;;5042699;28;20075;-43
2021/08/01 04:46:57;;;;;;;4.45;2.30;;;;;;;;;;5042300;28;20542;-47
2021/08/01 04:49:23;;;;;;;5.63;2.22;;;;;;;;;;5042280;28;20047;-43
2021/08/01 04:51:48;;;;;;;6.55;2.50;;;;;;;;;;5041393;28;20027;-44
2021/08/01 04:54:13;;;;;;;5.82;2.70;;;;;;;;;;5040260;28;20488;-44
2021/08/01 04:56:42;;;;;;;5.80;2.78;;;;;;;;;;5040574;28;20407;-47
2021/08/01 04:59:08;;;;;;;4.78;2.47;;;;;;;;;;5043657;28;20656;-47
2021/08/01 05:01:33;;;;;;;7.65;3.00;;;;;;;;;;5043352;28;20021;-42
2021/08/01 05:03:58;;;;;;;6.72;2.33;;;;;;;;;;5035510;28;20507;-38
2021/08/01 05:06:24;;;;;;;5.28;2.47;;;;;;;;;;5030165;28;20035;-39
2021/08/01 05:08:49;;;;;;;4.50;2.47;;;;;;;;;;5029865;28;20037;-39
2021/08/01 05:11:14;;;;;;;5.57;2.55;;;;;;;;;;5025560;28;20029;-37
2021/08/01 05:13:40;;;;;;;6.25;2.47;;;;;;;;;;5046785;28;20063;-39
2021/08/01 05:16:05;;;;;;;4.72;2.33;;;;;;;;;;5046130;28;20033;-38
2021/08/01 05:18:30;;;;;;;4.25;2.45;;;;;;;;;;5044143;28;20112;-41
2021/08/01 05:20:56;;;;;;;5.00;2.75;;;;;;;;;;5043233;28;20544;-38
2021/08/01 05:23:21;;;;;;;5.97;2.80;;;;;;;;;;5042337;28;20031;-37
2021/08/01 05:25:46;;;;;;;8.02;2.53;;;;;;;;;;5038921;28;20035;-46
2021/08/01 05:28:12;;;;;;;5.20;2.30;;;;;;;;;;5054304;28;20280;-42
2021/08/01 05:30:37;;;;;;;4.18;2.20;;;;;;;;;;5042138;28;20033;-40
2021/08/01 05:33:07;;;;;;;4.25;2.20;;;;;;;;;;5042865;28;20476;-41
2021/08/01 05:35:34;;;;;;;4.93;2.03;;;;;;;;;;5033188;28;20064;-42
2021/08/01 05:38:00;;;;;;;5.28;2.53;;;;;;;;;;5037104;28;20032;-41
2021/08/01 05:40:25;;;;;;;5.90;2.13;;;;;;;;;;5040378;28;20033;-43
2021/08/01 05:42:51;;;;;;;3.33;2.05;;;;;;;;;;5039453;28;20803;-41
2021/08/01 05:45:16;;;;;;;4.75;2.42;;;;;;;;;;5038919;28;20029;-42
2021/08/01 05:47:41;;;;;;;6.38;2.47;;;;;;;;;;5039702;28;20039;-41
2021/08/01 05:50:09;;;;;;;4.07;2.33;;;;;;;;;;5043787;28;20025;-40
2021/08/01 05:52:35;;;;;;;8.25;2.65;;;;;;;;;;5043024;28;20028;-44
2021/08/01 05:55:00;;;;;;;5.45;2.30;;;;;;;;;;5057444;28;20025;-40
2021/08/01 05:57:25;;;;;;;8.43;3.00;;;;;;;;;;5051427;28;20023;-40
2021/08/01 05:59:51;;;;;;;5.93;2.10;;;;;;;;;;5049015;28;20434;-40
2021/08/01 06:02:16;;;;;;;8.65;2.80;;;;;;;;;;5054727;28;20037;-42
2021/08/01 06:04:41;;;;;;;6.40;2.42;;;;;;;;;;5042968;28;20028;-41
2021/08/01 06:07:06;;;;;;;7.75;2.60;;;;;;;;;;5047923;28;20043;-43
2021/08/01 06:09:32;;;;;;;3.97;1.77;;;;;;;;;;5053908;28;20017;-40
2021/08/01 06:11:57;;;;;;;4.40;2.15;;;;;;;;;;5052675;28;20086;-39
2021/08/01 06:14:23;;;;;;;5.82;2.22;;;;;;;;;;5055386;28;20040;-44
2021/08/01 06:16:48;;;;;;;5.38;2.35;;;;;;;;;;5052941;28;20104;-41
2021/08/01 06:19:13;;;;;;;5.82;2.20;;;;;;;;;;5055479;28;20032;-42
2021/08/01 06:21:39;;;;;;;4.50;2.30;;;;;;;;;;5056171;28;20099;-42
2021/08/01 06:24:04;;;;;;;6.95;2.55;;;;;;;;;;5055397;28;20871;-42
2021/08/01 06:26:29;;;;;;;5.78;2.15;;;;;;;;;;5054186;28;20059;-42
2021/08/01 06:28:56;;;;;;;4.30;2.45;;;;;;;;;;5059736;28;20417;-45
2021/08/01 06:31:21;;;;;;;4.13;2.33;;;;;;;;;;5051994;28;20028;-42
2021/08/01 06:33:46;;;;;;;5.95;2.38;;;;;;;;;;5059396;28;20394;-41
2021/08/01 06:36:14;;;;;;;8.15;2.40;;;;;;;;;;5052700;28;20639;-41
2021/08/01 06:38:41;;;;;;;5.78;2.17;;;;;;;;;;5056461;28;20024;-42
2021/08/01 06:41:07;;;;;;;6.15;2.40;;;;;;;;;;5057750;28;20039;-41
2021/08/01 06:43:33;;;;;;;4.60;2.50;;;;;;;;;;5055864;28;20024;-42
2021/08/01 06:45:58;;;;;;;6.32;2.55;;;;;;;;;;5053510;28;20025;-41
2021/08/01 06:48:23;;;;;;;6.85;2.30;;;;;;;;;;5057939;28;20035;-42
2021/08/01 06:50:49;;;;;;;4.57;2.20;;;;;;;;;;5056495;28;20028;-40
2021/08/01 06:53:15;;;;;;;3.60;2.13;;;;;;;;;;5061268;28;20508;-41
2021/08/01 06:55:40;;;;;;;4.10;2.42;;;;;;;;;;5055611;28;20056;-39
2021/08/01 06:58:06;;;;;;;7.65;2.80;;;;;;;;;;5058149;28;20063;-42
2021/08/01 07:00:31;;;;;;;4.18;2.20;;;;;;;;;;5062090;28;20717;-43
2021/08/01 07:03:01;;;;;;;5.38;2.05;;;;;;;;;;5056022;28;20506;-39
2021/08/01 07:05:28;;;;;;;4.30;2.17;;;;;;;;;;5051691;28;20626;-40
2021/08/01 07:07:55;;;;;;;4.97;2.20;;;;;;;;;;5054925;28;20040;-42
2021/08/01 07:10:21;;;;;;;5.88;2.40;;;;;;;;;;5056058;28;20039;-42
2021/08/01 07:12:46;;;;;;;8.10;2.30;;;;;;;;;;5057737;28;20029;-42
2021/08/01 07:15:14;;;;;;;4.22;2.08;;;;;;;;;;5048129;28;20052;-45
2021/08/01 07:17:40;;;;;;;5.22;1.80;;;;;;;;;;5049995;28;20027;-42
2021/08/01 07:20:08;;;;;;;5.35;2.25;;;;;;;;;;5053780;28;20025;-40
2021/08/01 07:22:33;;;;;;;6.13;2.13;;;;;;;;;;5052465;28;20049;-44
2021/08/01 07:24:59;;;;;;;6.13;1.95;;;;;;;;;;5054963;28;20107;-45
2021/08/01 07:27:24;;;;;;;5.32;2.35;;;;;;;;;;5056454;28;20032;-43
2021/08/01 07:29:49;;;;;;;4.10;2.08;;;;;;;;;;5056942;28;20035;-46
2021/08/01 07:32:15;;;;;;;5.32;2.30;;;;;;;;;;5052849;28;20082;-48
2021/08/01 07:34:40;;;;;;;5.53;2.10;;;;;;;;;;5047403;28;20059;-42
2021/08/01 07:37:05;;;;;;;4.70;2.03;;;;;;;;;;5063419;28;20056;-44
2021/08/01 07:39:31;;;;;;;5.03;1.75;;;;;;;;;;5038208;28;20029;-48
2021/08/01 07:41:56;;;;;;;3.65;1.77;;;;;;;;;;5053894;28;20694;-44
2021/08/01 07:44:24;;;;;;;6.93;2.08;;;;;;;;;;5050971;28;20399;-44
2021/08/01 07:46:49;;;;;;;6.28;2.20;;;;;;;;;;5052183;28;20036;-47
2021/08/01 07:49:14;;;;;;;6.60;1.95;;;;;;;;;;5060351;28;20031;-43
2021/08/01 07:51:40;;;;;;;4.07;1.73;;;;;;;;;;5051490;28;20101;-43
2021/08/01 07:54:05;;;;;;;5.60;2.20;;;;;;;;;;5056092;28;20810;-61
2021/08/01 07:56:30;;;;;;;5.10;1.90;;;;;;;;;;5054356;28;20116;-37
2021/08/01 07:58:56;;;;;;;3.85;2.00;;;;;;;;;;5047502;28;20031;-37
2021/08/01 08:01:21;;;;;;;3.80;1.90;;;;;;;;;;5058602;28;20024;-38
2021/08/01 08:03:46;;;;;;;4.15;2.03;;;;;;;;;;5055247;28;20450;-36
2021/08/01 08:06:11;;;;;;;4.57;2.00;;;;;;;;;;5053068;28;20434;-38
2021/08/01 08:08:37;;;;;;;6.72;2.40;;;;;;;;;;5057488;28;20082;-37
2021/08/01 08:11:02;;;;;;;3.67;1.90;;;;;;;;;;5051658;28;20028;-42
2021/08/01 08:13:27;;;;;;;3.70;2.20;;;;;;;;;;5056625;28;20102;-37
2021/08/01 08:15:54;;;;;;;4.88;2.25;;;;;;;;;;5056635;28;20021;-37
2021/08/01 08:18:19;;;;;;;3.47;1.63;;;;;;;;;;5056626;28;20032;-40
2021/08/01 08:20:45;;;;;;;4.07;1.77;;;;;;;;;;5049146;28;20021;-36
2021/08/01 08:23:10;;;;;;;5.97;2.33;;;;;;;;;;5044580;28;20040;-38
2021/08/01 08:25:35;;;;;;;3.80;2.00;;;;;;;;;;5045168;28;20028;-38
2021/08/01 08:28:02;;;;;;;3.75;1.63;;;;;;;;;;5043833;28;20036;-37
2021/08/01 08:30:28;;;;;;;4.60;2.05;;;;;;;;;;5037837;28;20025;-37
2021/08/01 08:32:53;;;;;;;5.47;1.98;;;;;;;;;;5056186;28;20036;-38
2021/08/01 08:35:18;;;;;;;4.65;2.10;;;;;;;;;;5057685;28;20027;-37
2021/08/01 08:37:46;;;;;;;3.95;1.90;;;;;;;;;;5045506;28;20028;-37
2021/08/01 08:40:13;;;;;;;3.85;1.90;;;;;;;;;;5058489;28;20117;-37
2021/08/01 08:42:39;;;;;;;4.90;2.42;;;;;;;;;;5060877;28;20033;-38
2021/08/01 08:45:05;;;;;;;4.55;2.00;;;;;;;;;;5066874;28;20021;-38
2021/08/01 08:47:36;;;;;;;7.05;2.20;;;;;;;;;;5054042;28;20072;-40
2021/08/01 08:50:03;;;;;;;3.65;1.90;;;;;;;;;;5048346;28;20386;-39
2021/08/01 08:52:30;;;;;;;4.13;2.08;;;;;;;;;;5059913;28;20032;-41
2021/08/01 08:54:59;;;;;;;4.18;2.00;;;;;;;;;;5058223;28;20016;-38
2021/08/01 08:57:33;;;;;;;4.95;2.75;;;;;;;;;;5052706;28;20020;-46
2021/08/01 09:00:11;;;;;;;3.60;2.00;;;;;;;;;;5051056;28;20029;-38
2021/08/01 09:02:36;;;;;;;4.70;2.20;;;;;;;;;;5046088;28;20395;-38
2021/08/01 09:05:03;;;;;;;4.53;1.70;;;;;;;;;;5052091;28;20025;-38
2021/08/01 09:07:29;;;;;;;3.35;1.85;;;;;;;;;;5054739;28;20031;-38
2021/08/01 09:09:54;;;;;;;4.18;2.08;;;;;;;;;;5045749;28;20037;-37
2021/08/01 09:12:21;;;;;;;3.83;2.20;;;;;;;;;;5045702;28;20409;-38
2021/08/01 09:14:47;;;;;;;4.60;2.40;;;;;;;;;;5045770;28;20028;-38
2021/08/01 09:17:32;;;;;;;5.47;2.53;;;;;;;;;;5042741;28;20052;-37
2021/08/01 09:20:30;;;;;;;4.20;2.20;;;;;;;;;;5050380;28;20025;-38
2021/08/01 09:22:59;;;;;;;3.83;2.00;;;;;;;;;;5034398;28;20032;-38
2021/08/01 09:25:27;;;;;;;4.68;2.17;;;;;;;;;;5043746;28;20049;-38
2021/08/01 09:28:09;;;;;;;5.25;2.30;;;;;;;;;;5043106;28;20033;-38
2021/08/01 09:30:47;;;;;;;3.78;1.95;;;;;;;;;;5029983;28;20028;-37
2021/08/01 09:33:16;;;;;;;4.38;1.98;;;;;;;;;;5045368;28;20041;-37
2021/08/01 09:35:42;;;;;;;4.65;2.33;;;;;;;;;;5043663;28;20025;-38
2021/08/01 09:38:08;;;;;;;5.78;2.58;;;;;;;;;;5044875;28;20071;-38
2021/08/01 09:40:34;;;;;;;4.90;2.50;;;;;;;;;;5044950;28;20051;-38
2021/08/01 09:43:13;;;;;;;5.53;2.33;;;;;;;;;;5044539;28;20112;-38
2021/08/01 09:45:39;;;;;;;3.70;1.95;;;;;;;;;;5045427;28;20029;-39
2021/08/01 09:48:20;;;;;;;4.90;2.10;;;;;;;;;;5044713;28;20679;-39
2021/08/01 09:51:04;;;;;;;4.47;2.42;;;;;;;;;;5063954;28;20027;-38
2021/08/01 09:53:31;;;;;;;3.28;2.05;;;;;;;;;;5051542;28;20070;-39
2021/08/01 09:56:20;;;;;;;5.50;2.17;;;;;;;;;;5035148;28;20532;-38
2021/08/01 09:58:47;;;;;;;4.75;2.13;;;;;;;;;;5042890;28;20024;-38
2021/08/01 10:01:13;;;;;;;4.97;2.42;;;;;;;;;;5044041;28;20094;-38
2021/08/01 10:03:47;;;;;;;4.22;1.85;;;;;;;;;;5045007;28;20454;-39
2021/08/01 10:06:14;;;;;;;4.65;2.35;;;;;;;;;;5044658;28;20116;-40
2021/08/01 10:09:00;;;;;;;3.83;2.40;;;;;;;;;;5044575;28;20021;-43
2021/08/01 10:11:25;;;;;;;5.75;2.45;;;;;;;;;;5044084;28;20040;-38
2021/08/01 10:13:55;;;;;;;3.88;2.38;;;;;;;;;;5045149;28;20090;-39
2021/08/01 10:16:22;;;;;;;5.13;2.20;;;;;;;;;;5044588;28;20025;-43
2021/08/01 10:18:50;;;;;;;4.78;2.30;;;;;;;;;;5044510;28;20720;-38
2021/08/01 10:21:21;;;;;;;4.10;2.58;;;;;;;;;;5042474;28;20033;-41
2021/08/01 10:23:52;;;;;;;5.68;2.42;;;;;;;;;;5040781;28;20025;-38
2021/08/01 10:26:19;;;;;;;;;;;;;;;;;;5043238;28;20101;-42
2021/08/01 10:28:51;;;;;;;5.97;2.50;;;;;;;;;;5041236;28;19920;-44
2021/08/01 10:31:27;;;;;;;6.13;2.65;;;;;;;;;;5042609;28;20579;-42
2021/08/01 10:34:04;;;;;;;6.28;2.95;;;;;;;;;;5041625;28;20033;-39
2021/08/01 10:36:31;;;;;;;4.05;2.40;;;;;;;;;;5042597;28;20025;-45
2021/08/01 10:39:02;;;;;;;4.47;2.20;;;;;;;;;;5042272;28;20450;-40
2021/08/01 10:41:32;;;;;;;4.80;2.13;;;;;;;;;;5041758;28;20440;-41
2021/08/01 10:44:03;;;;;;;4.70;2.35;;;;;;;;;;5041872;28;20028;-41
2021/08/01 10:46:29;;;;;;;4.63;2.67;;;;;;;;;;5030912;28;20377;-41
2021/08/01 10:48:58;;;;;;;4.45;2.60;;;;;;;;;;5042243;28;20094;-42
2021/08/01 10:51:27;;;;;;;5.18;2.03;;;;;;;;;;5042745;28;20541;-40
2021/08/01 10:53:53;;;;;;;4.35;2.40;;;;;;;;;;5040721;28;20535;-41
2021/08/01 10:56:24;;;;;;;3.72;2.30;;;;;;;;;;5042471;28;20029;-40
2021/08/01 10:58:49;;;;;;;3.30;1.90;;;;;;;;;;5041046;28;20029;-40
2021/08/01 11:01:14;;;;;;;4.85;2.20;;;;;;;;;;5040520;28;20088;-44
2021/08/01 11:03:41;;;;;;;4.97;2.30;;;;;;;;;;5047731;28;20357;-41
2021/08/01 11:06:35;;;;;;;3.80;2.10;;;;;;;;;;5038288;28;20024;-43
2021/08/01 11:09:11;;;;;;;4.15;2.30;;;;;;;;;;5040811;28;20103;-44
2021/08/01 11:11:36;;;;;;;3.88;2.20;;;;;;;;;;5039114;28;20033;-41
2021/08/01 11:14:02;;;;;;;4.22;2.45;;;;;;;;;;5024480;28;20025;-40
2021/08/01 11:16:30;;;;;;;4.15;2.00;;;;;;;;;;5023372;28;20026;-42
2021/08/01 11:18:55;;;;;;;4.63;2.15;;;;;;;;;;5024120;28;20036;-44
2021/08/01 11:21:35;;;;;;;3.65;2.00;;;;;;;;;;5043504;28;20045;-42
2021/08/01 11:24:04;;;;;;;3.28;2.17;;;;;;;;;;5047775;28;20028;-40
2021/08/01 11:26:30;;;;;;;3.78;2.15;;;;;;;;;;5047897;28;20037;-41
2021/08/01 11:29:07;;;;;;;6.20;2.58;;;;;;;;;;5047010;28;20024;-39
2021/08/01 11:31:33;;;;;;;4.20;2.30;;;;;;;;;;5048079;28;20048;-42
2021/08/01 11:34:16;;;;;;;5.05;2.30;;;;;;;;;;5045425;28;20104;-40
2021/08/01 11:36:42;;;;;;;3.60;2.22;;;;;;;;;;5041637;28;20480;-41
2021/08/01 11:39:07;;;;;;;4.30;1.90;;;;;;;;;;5045565;28;20032;-42
2021/08/01 11:41:37;;;;;;;3.33;1.80;;;;;;;;;;5044844;28;20029;-41
2021/08/01 11:44:11;;;;;;;7.32;2.58;;;;;;;;;;5044136;28;20025;-39
2021/08/01 11:46:46;;;;;;;3.80;2.28;;;;;;;;;;5045365;28;20044;-39
2021/08/01 11:49:12;;;;;;;5.93;2.08;;;;;;;;;;5036871;28;20021;-40
2021/08/01 11:51:42;;;;;;;4.05;2.08;;;;;;;;;;5039062;28;20017;-40
2021/08/01 11:54:10;;;;;;;3.30;1.92;;;;;;;;;;5047295;28;20090;-41
2021/08/01 11:56:38;;;;;;;4.20;2.08;;;;;;;;;;5047229;28;20013;-39
2021/08/01 11:59:04;;;;;;;4.55;2.10;;;;;;;;;;5047656;28;20059;-39
2021/08/01 12:01:30;;;;;;;4.13;1.65;;;;;;;;;;5047471;28;20408;-42
2021/08/01 12:03:55;;;;;;;3.30;1.77;;;;;;;;;;5042569;28;20028;-42
2021/08/01 12:06:33;;;;;;;3.65;1.90;;;;;;;;;;5044490;28;20087;-42
2021/08/01 12:08:59;;;;;;;2.75;1.77;;;;;;;;;;5044279;28;20112;-46
2021/08/01 12:11:24;;;;;;;4.50;1.77;;;;;;;;;;5044851;28;20132;-43
2021/08/01 12:14:06;;;;;;;3.90;1.95;;;;;;;;;;5044476;28;20120;-44
2021/08/01 12:16:32;;;;;;;4.70;2.67;;;;;;;;;;5044169;28;20613;-43
2021/08/01 12:19:16;;;;;;;3.60;1.83;;;;;;;;;;5044993;28;20064;-40
2021/08/01 12:21:43;;;;;;;2.95;1.65;;;;;;;;;;5040468;28;20108;-41
2021/08/01 12:24:28;;;;;;;3.47;2.05;;;;;;;;;;5036892;28;20025;-43
2021/08/01 12:26:59;;;;;;;3.67;1.70;;;;;;;;;;5044483;28;20108;-42
2021/08/01 12:29:42;;;;;;;3.90;1.73;;;;;;;;;;5044222;28;20040;-41
2021/08/01 12:32:38;;;;;;;2.65;1.60;;;;;;;;;;5045041;28;20261;-42
2021/08/01 12:35:05;;;;;;;2.83;1.83;;;;;;;;;;5043282;28;20036;-42
2021/08/01 12:37:59;;;;;;;4.35;2.10;;;;;;;;;;5043681;28;20036;-45
2021/08/01 12:40:45;;;;;;;3.33;1.85;;;;;;;;;;5044296;28;20036;-41
2021/08/01 12:43:16;;;;;;;2.63;1.58;;;;;;;;;;5044465;28;20021;-41
2021/08/01 12:45:51;;;;;;;3.05;1.70;;;;;;;;;;5042354;28;20108;-42
2021/08/01 12:48:19;;;;;;;3.63;2.00;;;;;;;;;;5044223;28;20031;-40
2021/08/01 12:50:47;;;;;;;3.17;1.77;;;;;;;;;;5044452;28;20035;-40
2021/08/01 12:53:14;;;;;;;4.40;1.83;;;;;;;;;;5043824;28;20025;-42
2021/08/01 12:55:40;;;;;;;3.20;1.83;;;;;;;;;;5031385;28;20039;-40
2021/08/01 12:58:11;;;;;;;3.90;1.92;;;;;;;;;;5043002;28;20589;-44
2021/08/01 13:00:38;;;;;;;3.07;1.60;;;;;;;;;;5044019;28;20570;-45
2021/08/01 13:03:07;;;;;;;3.83;1.80;;;;;;;;;;5043909;28;20025;-42
2021/08/01 13:05:34;;;;;;;3.10;1.80;;;;;;;;;;5043849;28;20029;-39
2021/08/01 13:08:02;;;;;;;3.05;1.60;;;;;;;;;;5043635;28;20055;-40
2021/08/01 13:10:29;;;;;;;3.45;2.00;;;;;;;;;;5043535;28;20037;-40
2021/08/01 13:13:08;;;;;;;3.47;1.88;;;;;;;;;;5043897;28;20112;-43
2021/08/01 13:15:37;;;;;;;2.55;1.80;;;;;;;;;;5043197;28;20095;-42
2021/08/01 13:18:04;;;;;;;2.45;1.52;;;;;;;;;;5043322;28;20024;-42
2021/08/01 13:20:40;;;;;;;3.28;1.73;;;;;;;;;;5043891;28;20040;-40
2021/08/01 13:23:32;;;;;;;2.72;1.30;;;;;;;;;;5042429;28;20036;-39
2021/08/01 13:25:58;;;;;;;;;;;;;;;;;;5042572;28;20128;-41
2021/08/01 13:28:45;;;;;;;3.78;1.80;;;;;;;;;;5043001;28;19912;-40
2021/08/01 13:31:11;;;;;;;3.60;1.70;;;;;;;;;;5043324;28;20535;-44
2021/08/01 13:33:38;;;;;;;2.50;1.52;;;;;;;;;;5043376;28;20029;-41
2021/08/01 13:36:03;;;;;;;2.63;1.67;;;;;;;;;;5043429;28;20029;-41
2021/08/01 13:38:29;;;;;;;3.70;1.70;;;;;;;;;;5043186;28;20108;-40
2021/08/01 13:40:54;;;;;;;4.18;1.75;;;;;;;;;;5042912;28;20635;-40
2021/08/01 13:43:21;;;;;;;1.98;1.20;;;;;;;;;;5042955;28;20025;-39
2021/08/01 13:45:48;;;;;;;2.75;1.52;;;;;;;;;;5042350;28;20060;-39
2021/08/01 13:48:14;;;;;;;3.22;1.30;;;;;;;;;;5043265;28;20104;-41
2021/08/01 13:50:39;;;;;;;3.13;1.50;;;;;;;;;;5042584;28;20786;-42
2021/08/01 13:53:05;;;;;;;2.90;1.33;;;;;;;;;;5044735;28;20102;-40
2021/08/01 13:55:31;;;;;;;3.53;1.80;;;;;;;;;;5042954;28;20013;-41
2021/08/01 13:58:08;;;;;;;3.10;1.35;;;;;;;;;;5042286;28;20075;-42
2021/08/01 14:00:34;;;;;;;2.38;1.20;;;;;;;;;;5043113;28;20032;-43
2021/08/01 14:03:00;;;;;;;3.20;1.50;;;;;;;;;;5042854;28;20094;-41
2021/08/01 14:05:27;;;;;;;2.10;1.30;;;;;;;;;;5040773;28;20028;-43
2021/08/01 14:07:53;;;;;;;2.53;1.33;;;;;;;;;;5035657;28;20066;-39
2021/08/01 14:10:18;;;;;;;2.85;1.02;;;;;;;;;;5042739;28;20047;-41
2021/08/01 14:12:43;;;;;;;2.53;1.30;;;;;;;;;;5042268;28;20051;-39
2021/08/01 14:15:10;;;;;;;1.77;1.10;;;;;;;;;;5042846;28;20035;-42
2021/08/01 14:17:36;;;;;;;1.88;1.15;;;;;;;;;;5041682;28;20496;-38
2021/08/01 14:20:03;;;;;;;1.80;1.10;;;;;;;;;;5042929;28;20071;-41
2021/08/01 14:22:29;;;;;;;2.35;1.20;;;;;;;;;;5042618;28;20131;-44
2021/08/01 14:24:54;;;;;;;1.88;1.05;;;;;;;;;;5041718;28;20056;-41
2021/08/01 14:27:23;;;;;;;2.33;1.10;;;;;;;;;;5042216;28;20025;-40
2021/08/01 14:29:49;;;;;;;2.10;1.13;;;;;;;;;;5036771;28;20017;-40
2021/08/01 14:32:16;;;;;;;2.42;1.00;;;;;;;;;;5035602;28;20089;-42
2021/08/01 14:34:43;;;;;;;3.00;1.35;;;;;;;;;;5042298;28;20020;-40
2021/08/01 14:37:10;;;;;;;1.88;0.98;;;;;;;;;;5042212;28;20063;-41
2021/08/01 14:39:40;;;;;;;2.05;1.20;;;;;;;;;;5041845;28;20104;-41
2021/08/01 14:42:07;;;;;;;1.80;0.90;;;;;;;;;;5042008;28;20159;-41
2021/08/01 14:44:33;;;;;;;1.80;0.95;;;;;;;;;;5042485;28;20033;-41
2021/08/01 14:46:59;;;;;;;1.95;0.90;;;;;;;;;;5042190;28;20472;-39
2021/08/01 14:49:28;;;;;;;2.95;0.98;;;;;;;;;;5043144;28;20117;-41